createdAt,value
2022-10-20T00:04:54.862Z,2.20
2022-10-20T00:08:00.620Z,2.10
2022-10-20T00:11:06.785Z,2.70
2022-10-20T00:14:12.843Z,2.90
2022-10-20T00:17:18.553Z,2.70
2022-10-20T00:20:24.442Z,2.80
2022-10-20T00:23:30.106Z,2.50
2022-10-20T00:26:35.962Z,2.50
2022-10-20T00:29:42.031Z,2.70
2022-10-20T00:32:49.770Z,2.70
2022-10-20T00:35:55.650Z,2.90
2022-10-20T00:39:05.661Z,3.30
2022-10-20T00:42:15.964Z,2.90
2022-10-20T00:45:23.283Z,3.10
2022-10-20T00:48:33.175Z,3.50
2022-10-20T00:51:39.103Z,3.70
2022-10-20T00:54:44.851Z,4.10
2022-10-20T00:57:53.261Z,3.80
2022-10-20T01:01:00.966Z,3.90
2022-10-20T01:04:07.206Z,2.70
2022-10-20T01:07:13.088Z,3.20
2022-10-20T01:10:19.664Z,2.40
2022-10-20T01:13:37.813Z,2.30
2022-10-20T01:16:55.956Z,2.70
2022-10-20T01:20:46.660Z,2.50
2022-10-20T01:24:38.700Z,2.50
2022-10-20T01:27:46.598Z,2.60
2022-10-20T01:30:58.092Z,2.70
2022-10-20T01:34:09.978Z,2.60
2022-10-20T01:37:34.015Z,2.70
2022-10-20T01:40:51.312Z,3.00
2022-10-20T01:43:57.881Z,2.50
2022-10-20T01:47:05.058Z,2.20
2022-10-20T01:50:13.904Z,2.50
2022-10-20T01:53:20.769Z,2.30
2022-10-20T01:56:36.756Z,2.10
2022-10-20T02:00:01.047Z,2.60
2022-10-20T02:03:34.138Z,2.40
2022-10-20T02:06:51.058Z,2.40
2022-10-20T02:10:01.933Z,2.30
2022-10-20T02:13:11.400Z,2.40
2022-10-20T02:16:21.142Z,2.50
2022-10-20T02:19:34.889Z,2.30
2022-10-20T02:22:42.323Z,2.30
2022-10-20T02:25:50.889Z,2.10
2022-10-20T02:29:01.760Z,2.20
2022-10-20T02:32:09.185Z,2.10
2022-10-20T02:35:19.096Z,2.00
2022-10-20T02:38:24.853Z,1.90
2022-10-20T02:41:31.257Z,2.30
2022-10-20T02:44:36.897Z,2.20
2022-10-20T02:47:42.630Z,2.50
2022-10-20T02:50:48.380Z,2.20
2022-10-20T02:53:55.009Z,2.30
2022-10-20T02:57:00.651Z,2.10
2022-10-20T03:00:08.085Z,2.20
2022-10-20T03:03:13.856Z,2.20
2022-10-20T03:06:19.608Z,2.20
2022-10-20T03:09:25.360Z,2.80
2022-10-20T03:12:32.249Z,3.10
2022-10-20T03:15:38.611Z,3.50
2022-10-20T03:18:44.280Z,2.80
2022-10-20T03:21:49.996Z,2.60
2022-10-20T03:24:55.691Z,2.50
2022-10-20T03:28:01.606Z,2.50
2022-10-20T03:31:07.540Z,2.50
2022-10-20T03:34:13.950Z,2.90
2022-10-20T03:37:19.708Z,2.80
2022-10-20T03:40:25.553Z,2.60
2022-10-20T03:43:31.218Z,2.50
2022-10-20T03:46:36.971Z,2.30
2022-10-20T03:49:43.225Z,2.60
2022-10-20T03:55:54.236Z,3.20
2022-10-20T03:59:00.043Z,3.00
2022-10-20T04:02:06.388Z,2.50
2022-10-20T04:08:18.708Z,2.50
2022-10-20T04:11:27.009Z,2.40
2022-10-20T04:14:32.651Z,3.40
2022-10-20T04:20:45.490Z,2.60
2022-10-20T04:23:51.171Z,2.20
2022-10-20T04:26:56.846Z,2.30
2022-10-20T04:30:02.486Z,2.10
2022-10-20T04:33:08.480Z,1.90
2022-10-20T04:36:15.533Z,2.10
2022-10-20T04:39:21.244Z,2.50
2022-10-20T04:42:27.100Z,1.90
2022-10-20T04:45:32.855Z,2.30
2022-10-20T04:48:39.019Z,3.50
2022-10-20T04:51:44.774Z,2.50
2022-10-20T04:54:50.939Z,2.30
2022-10-20T04:57:56.589Z,2.20
2022-10-20T05:01:06.620Z,1.90
2022-10-20T05:04:13.211Z,2.10
2022-10-20T05:07:18.972Z,2.50
2022-10-20T05:10:24.724Z,3.60
2022-10-20T05:13:30.478Z,4.50
2022-10-20T05:16:36.556Z,4.90
2022-10-20T05:19:42.295Z,4.20
2022-10-20T05:22:48.049Z,2.90
2022-10-20T05:25:53.725Z,3.50
2022-10-20T05:28:59.454Z,3.90
2022-10-20T05:32:05.322Z,3.00
2022-10-20T05:35:12.146Z,3.90
2022-10-20T05:38:17.825Z,4.30
2022-10-20T05:41:25.470Z,4.30
2022-10-20T05:44:31.501Z,7.10
2022-10-20T05:47:37.767Z,3.70
2022-10-20T05:50:43.687Z,9.80
2022-10-20T05:53:49.788Z,4.10
2022-10-20T05:56:55.454Z,3.90
2022-10-20T06:00:01.194Z,3.20
2022-10-20T06:03:07.050Z,2.80
2022-10-20T06:06:12.698Z,3.40
2022-10-20T06:09:19.521Z,5.30
2022-10-20T06:12:25.317Z,15.10
2022-10-20T06:15:30.989Z,7.80
2022-10-20T06:18:38.855Z,4.90
2022-10-20T06:21:44.554Z,4.60
2022-10-20T06:24:50.299Z,5.00
2022-10-20T06:27:56.054Z,5.70
2022-10-20T06:31:02.114Z,4.60
2022-10-20T06:34:10.079Z,5.20
2022-10-20T06:37:15.983Z,4.60
2022-10-20T06:40:22.039Z,3.70
2022-10-20T06:43:28.408Z,3.70
2022-10-20T06:46:36.476Z,3.10
2022-10-20T06:49:42.184Z,3.60
2022-10-20T06:52:47.923Z,3.80
2022-10-20T06:56:00.144Z,2.50
2022-10-20T06:59:06.297Z,4.80
2022-10-20T07:02:13.636Z,4.40
2022-10-20T07:05:19.999Z,4.80
2022-10-20T07:11:32.096Z,5.60
2022-10-20T07:14:37.827Z,7.30
2022-10-20T07:17:43.440Z,6.00
2022-10-20T07:20:49.061Z,5.40
2022-10-20T07:23:56.264Z,6.40
2022-10-20T07:27:01.970Z,5.40
2022-10-20T07:30:09.200Z,5.10
2022-10-20T07:33:14.911Z,5.00
2022-10-20T07:36:23.961Z,5.50
2022-10-20T07:39:29.999Z,5.00
2022-10-20T07:42:35.897Z,7.00
2022-10-20T07:45:41.746Z,7.50
2022-10-20T07:48:47.568Z,7.50
2022-10-20T07:51:53.329Z,7.10
2022-10-20T07:55:07.486Z,6.90
2022-10-20T07:58:25.625Z,7.10
2022-10-20T08:01:31.740Z,6.60
2022-10-20T08:04:37.542Z,7.80
2022-10-20T08:07:43.296Z,7.00
2022-10-20T08:10:49.359Z,6.70
2022-10-20T08:13:55.111Z,8.50
2022-10-20T08:17:03.413Z,7.80
2022-10-20T08:20:16.966Z,7.80
2022-10-20T08:23:22.600Z,7.30
2022-10-20T08:26:29.127Z,6.80
2022-10-20T08:29:34.821Z,5.20
2022-10-20T08:32:40.798Z,5.80
2022-10-20T08:35:46.553Z,6.70
2022-10-20T08:38:52.357Z,5.40
2022-10-20T08:42:08.848Z,4.10
2022-10-20T08:45:19.380Z,5.80
2022-10-20T08:48:28.608Z,5.20
2022-10-20T08:51:38.520Z,4.60
2022-10-20T08:54:44.349Z,4.80
2022-10-20T08:57:50.781Z,4.20
2022-10-20T09:01:00.663Z,4.40
2022-10-20T09:04:22.576Z,4.40
2022-10-20T09:07:33.163Z,3.90
2022-10-20T09:10:42.892Z,4.00
2022-10-20T09:17:00.673Z,3.50
2022-10-20T09:20:13.350Z,2.70
2022-10-20T09:23:39.871Z,3.20
2022-10-20T09:27:03.706Z,2.50
2022-10-20T09:30:22.234Z,2.00
2022-10-20T09:33:31.946Z,1.70
2022-10-20T09:36:38.433Z,1.70
2022-10-20T09:39:55.387Z,1.50
2022-10-20T09:43:03.480Z,1.40
2022-10-20T09:46:12.209Z,1.40
2022-10-20T09:49:29.835Z,1.20
2022-10-20T09:52:47.830Z,1.40
2022-10-20T09:55:54.465Z,1.30
2022-10-20T10:02:26.898Z,1.90
2022-10-20T10:05:35.805Z,2.10
2022-10-20T10:08:48.002Z,1.70
2022-10-20T10:12:00.658Z,1.70
2022-10-20T10:15:20.094Z,1.90
2022-10-20T10:18:26.032Z,1.90
2022-10-20T10:21:44.279Z,1.70
2022-10-20T10:24:52.285Z,1.50
2022-10-20T10:28:04.696Z,1.80
2022-10-20T10:31:23.372Z,1.50
2022-10-20T10:34:55.219Z,1.20
2022-10-20T10:38:01.618Z,1.50
2022-10-20T10:44:21.624Z,1.90
2022-10-20T10:47:41.780Z,1.50
2022-10-20T10:50:52.967Z,1.90
2022-10-20T10:54:12.364Z,1.60
2022-10-20T10:57:32.120Z,1.30
2022-10-20T11:00:49.310Z,1.70
2022-10-20T11:04:27.141Z,1.50
2022-10-20T11:07:43.760Z,1.50
2022-10-20T11:11:01.496Z,1.50
2022-10-20T11:17:47.226Z,1.70
2022-10-20T11:21:02.614Z,2.20
2022-10-20T11:24:21.855Z,1.90
2022-10-20T11:27:32.013Z,1.90
2022-10-20T11:30:37.768Z,2.00
2022-10-20T11:33:48.642Z,1.40
2022-10-20T11:37:01.358Z,2.00
2022-10-20T11:40:17.989Z,1.80
2022-10-20T11:43:28.865Z,1.70
2022-10-20T11:46:39.321Z,1.90
2022-10-20T11:49:57.757Z,1.60
2022-10-20T11:54:00.654Z,1.60
2022-10-20T11:57:30.312Z,1.60
2022-10-20T12:00:59.552Z,1.50
2022-10-20T12:04:34.211Z,1.30
2022-10-20T12:08:29.537Z,1.20
2022-10-20T12:11:43.976Z,1.80
2022-10-20T12:14:57.429Z,1.90
2022-10-20T12:18:07.773Z,1.90
2022-10-20T12:21:14.103Z,2.00
2022-10-20T12:24:40.670Z,1.90
2022-10-20T12:27:46.438Z,2.10
2022-10-20T12:30:59.303Z,1.80
2022-10-20T12:34:05.220Z,2.30
2022-10-20T12:37:19.775Z,1.60
2022-10-20T12:40:31.264Z,1.70
2022-10-20T12:43:54.324Z,1.40
2022-10-20T12:47:05.485Z,1.10
2022-10-20T12:50:35.159Z,1.20
2022-10-20T12:53:41.526Z,1.90
2022-10-20T12:56:47.882Z,1.50
2022-10-20T12:59:53.816Z,1.20
2022-10-20T13:03:00.276Z,1.70
2022-10-20T13:06:44.976Z,1.80
2022-10-20T13:10:01.811Z,1.40
2022-10-20T13:14:03.055Z,1.80
2022-10-20T13:17:21.677Z,1.80
2022-10-20T13:20:40.553Z,1.50
2022-10-20T13:23:49.082Z,1.30
2022-10-20T13:26:59.854Z,1.50
2022-10-20T13:30:10.952Z,1.70
2022-10-20T13:33:38.389Z,1.80
2022-10-20T13:37:10.899Z,1.90
2022-10-20T13:40:24.360Z,1.60
2022-10-20T13:43:39.155Z,1.40
2022-10-20T13:46:58.145Z,1.20
2022-10-20T13:50:08.559Z,1.40
2022-10-20T13:53:23.043Z,1.30
2022-10-20T13:56:35.656Z,1.50
2022-10-20T13:59:55.643Z,1.40
2022-10-20T14:03:04.469Z,1.40
2022-10-20T14:06:32.500Z,1.60
2022-10-20T14:09:40.615Z,1.40
2022-10-20T14:12:49.828Z,1.30
2022-10-20T14:22:23.074Z,1.40
2022-10-20T14:25:31.485Z,1.50
2022-10-20T14:28:40.109Z,1.50
2022-10-20T14:31:46.857Z,1.60
2022-10-20T14:35:00.726Z,2.10
2022-10-20T14:38:16.988Z,2.50
2022-10-20T14:41:30.861Z,2.30
2022-10-20T14:44:36.881Z,2.60
2022-10-20T14:47:44.183Z,4.30
2022-10-20T14:50:50.369Z,4.00
2022-10-20T14:57:45.976Z,3.10
2022-10-20T15:00:51.745Z,3.10
2022-10-20T15:04:14.394Z,2.70
2022-10-20T15:07:23.630Z,2.50
2022-10-20T15:10:32.042Z,2.70
2022-10-20T15:13:38.349Z,3.00
2022-10-20T15:16:47.460Z,3.00
2022-10-20T15:19:53.205Z,2.50
2022-10-20T15:22:59.995Z,2.80
2022-10-20T15:26:11.393Z,2.70
2022-10-20T15:29:17.153Z,2.70
2022-10-20T15:32:22.873Z,3.30
2022-10-20T15:35:31.026Z,8.80
2022-10-20T15:38:36.684Z,8.30
2022-10-20T15:41:42.860Z,7.00
2022-10-20T15:44:48.552Z,8.10
2022-10-20T15:47:54.204Z,6.40
2022-10-20T15:51:00.261Z,22.70
2022-10-20T15:54:06.088Z,18.30
2022-10-20T15:57:11.813Z,22.60
2022-10-20T16:00:18.720Z,13.90
2022-10-20T16:03:24.409Z,9.50
2022-10-20T16:06:30.162Z,11.70
2022-10-20T16:09:35.918Z,9.40
2022-10-20T16:12:42.082Z,9.20
2022-10-20T16:15:47.721Z,10.00
2022-10-20T16:18:53.488Z,9.10
2022-10-20T16:21:59.243Z,7.80
2022-10-20T16:25:05.950Z,9.60
2022-10-20T16:28:12.105Z,7.60
2022-10-20T16:31:18.777Z,10.40
2022-10-20T16:34:24.470Z,9.30
2022-10-20T16:37:31.391Z,12.50
2022-10-20T16:40:37.147Z,8.90
2022-10-20T16:43:45.462Z,7.10
2022-10-20T16:46:51.213Z,8.10
2022-10-20T16:49:57.276Z,8.10
2022-10-20T16:53:03.071Z,6.70
2022-10-20T16:56:10.424Z,6.30
2022-10-20T16:59:16.177Z,8.50
2022-10-20T17:02:23.369Z,8.70
2022-10-20T17:05:29.118Z,8.60
2022-10-20T17:08:36.075Z,9.70
2022-10-20T17:11:41.976Z,9.00
2022-10-20T17:14:47.670Z,11.20
2022-10-20T17:17:53.320Z,9.10
2022-10-20T17:20:59.016Z,10.60
2022-10-20T17:24:04.845Z,17.10
2022-10-20T17:27:11.560Z,11.80
2022-10-20T17:30:17.603Z,16.40
2022-10-20T17:33:24.388Z,16.60
2022-10-20T17:36:31.365Z,20.10
2022-10-20T17:39:37.637Z,20.30
2022-10-20T17:42:43.289Z,15.20
2022-10-20T17:45:58.190Z,13.90
2022-10-20T17:49:04.380Z,14.10
2022-10-20T17:52:10.015Z,15.70
2022-10-20T17:55:15.913Z,15.20
2022-10-20T17:58:21.674Z,16.60
2022-10-20T18:01:29.839Z,17.40
2022-10-20T18:04:36.061Z,17.70
2022-10-20T18:07:41.917Z,14.60
2022-10-20T18:10:49.207Z,14.80
2022-10-20T18:13:56.602Z,17.60
2022-10-20T18:17:02.457Z,24.30
2022-10-20T18:20:09.820Z,16.40
2022-10-20T18:23:15.434Z,17.70
2022-10-20T18:26:22.422Z,30.40
2022-10-20T18:29:28.546Z,18.20
2022-10-20T18:32:36.257Z,15.50
2022-10-20T18:35:42.248Z,18.20
2022-10-20T18:38:48.675Z,18.60
2022-10-20T18:41:55.745Z,18.90
2022-10-20T18:45:01.516Z,15.80
2022-10-20T18:48:08.640Z,27.00
2022-10-20T18:51:15.289Z,17.30
2022-10-20T18:54:23.727Z,15.00
2022-10-20T18:57:31.597Z,14.40
2022-10-20T19:00:37.406Z,15.30
2022-10-20T19:03:46.281Z,14.40
2022-10-20T19:06:52.283Z,16.30
2022-10-20T19:09:57.998Z,18.60
2022-10-20T19:13:03.663Z,15.60
2022-10-20T19:16:12.572Z,14.20
2022-10-20T19:19:18.635Z,14.70
2022-10-20T19:22:27.039Z,31.00
2022-10-20T19:25:35.265Z,15.90
2022-10-20T19:28:43.933Z,16.00
2022-10-20T19:31:52.318Z,16.10
2022-10-20T19:34:58.057Z,15.50
2022-10-20T19:38:03.814Z,17.40
2022-10-20T19:41:10.049Z,16.80
2022-10-20T19:44:16.234Z,17.30
2022-10-20T19:47:21.994Z,17.10
2022-10-20T19:50:27.779Z,18.10
2022-10-20T19:53:35.161Z,17.10
2022-10-20T19:56:41.509Z,19.30
2022-10-20T20:02:51.379Z,20.50
2022-10-20T20:06:01.912Z,19.80
2022-10-20T20:09:10.624Z,18.90
2022-10-20T20:12:16.321Z,17.80
2022-10-20T20:15:22.177Z,19.10
2022-10-20T20:18:27.932Z,18.70
2022-10-20T20:21:33.802Z,17.60
2022-10-20T20:24:39.954Z,17.40
2022-10-20T20:27:45.709Z,19.90
2022-10-20T20:31:04.177Z,18.90
2022-10-20T20:34:09.912Z,16.50
2022-10-20T20:37:15.670Z,17.40
2022-10-20T20:40:21.751Z,17.10
2022-10-20T20:43:28.245Z,15.60
2022-10-20T20:46:34.316Z,16.20
2022-10-20T20:49:39.981Z,16.80
2022-10-20T20:52:45.871Z,11.30
2022-10-20T20:55:59.265Z,14.60
2022-10-20T20:59:05.313Z,14.40
2022-10-20T21:02:12.092Z,15.00
2022-10-20T21:05:17.984Z,16.40
2022-10-20T21:08:23.858Z,15.10
2022-10-20T21:11:30.026Z,15.30
2022-10-20T21:14:35.778Z,16.90
2022-10-20T21:17:41.502Z,15.00
2022-10-20T21:20:47.183Z,14.50
2022-10-20T21:23:53.557Z,15.00
2022-10-20T21:30:03.523Z,14.90
2022-10-20T21:33:09.147Z,14.50
2022-10-20T21:36:16.979Z,14.60
2022-10-20T21:39:22.813Z,13.80
2022-10-20T21:42:28.513Z,14.10
2022-10-20T21:45:34.241Z,13.70
2022-10-20T21:48:39.996Z,13.60
2022-10-20T21:51:47.898Z,16.40
2022-10-20T21:54:53.582Z,16.00
2022-10-20T21:57:59.304Z,13.80
2022-10-20T22:01:11.369Z,14.80
2022-10-20T22:04:18.083Z,14.30
2022-10-20T22:07:24.041Z,13.50
2022-10-20T22:10:29.796Z,12.70
2022-10-20T22:13:35.847Z,12.90
2022-10-20T22:16:43.660Z,13.50
2022-10-20T22:19:50.438Z,13.10
2022-10-20T22:22:56.091Z,15.60
2022-10-20T22:26:01.941Z,17.20
2022-10-20T22:29:10.053Z,18.50
2022-10-20T22:32:15.810Z,17.10
2022-10-20T22:35:21.427Z,17.50
2022-10-20T22:38:27.222Z,16.60
2022-10-20T22:41:32.875Z,18.20
2022-10-20T22:44:38.622Z,16.70
2022-10-20T22:47:44.376Z,16.80
2022-10-20T22:50:50.328Z,13.50
2022-10-20T22:53:55.986Z,17.20
2022-10-20T22:57:01.640Z,15.70
2022-10-20T23:00:09.512Z,17.00
2022-10-20T23:03:15.155Z,20.50
2022-10-20T23:06:22.388Z,13.00
2022-10-20T23:09:28.138Z,14.70
2022-10-20T23:12:34.658Z,17.20
2022-10-20T23:15:40.559Z,17.50
2022-10-20T23:18:46.426Z,15.80
2022-10-20T23:21:54.088Z,16.00
2022-10-20T23:24:59.775Z,15.00
2022-10-20T23:28:05.735Z,15.80
2022-10-20T23:31:13.879Z,18.50
2022-10-20T23:34:19.597Z,15.50
2022-10-20T23:37:25.454Z,15.20
2022-10-20T23:40:31.518Z,13.50
2022-10-20T23:43:37.589Z,13.80
2022-10-20T23:46:44.051Z,14.00
2022-10-20T23:49:49.693Z,14.00
2022-10-20T23:52:55.454Z,15.50
2022-10-20T23:56:01.210Z,17.50
2022-10-20T23:59:07.268Z,17.30
